logo
Rechercher aéroport 
image banner adimage banner adimage banner ad
image banner ad

EGLL - London Heathrow

Situé à London, United Kingdom

ICAO - EGLL, IATA - LHR

Données fournies par Airmate  

Information générale

Coordonnées: N51°28'39" W0°27'41"
Élévation : 83 feet MSL.
 
Évalué:
Voir évaluations:
[VIEW]
Voir autres Aéroports à England

Données opérationnelles

Special qualification required
Heure actuelle UTC:
Heure actuelle locale:
Météo
METAR: EGLL 070050Z AUTO 10002KT 9999 NCD 01/M02 Q1039
TAF: TAF EGLL 062258Z 0700/0806 20002KT CAVOK TEMPO 0704/0712 7000 PROB30 TEMPO 0706/0711 0300 FZFG VV/// TEMPO 0804/0806 7000 PROB30 TEMPO 0805/0806 0300 FZFG VV///
Voir NOTAMs / SUP AIP / TFR affectant cet aéroport [VIEW]
Fréquences de communication: [VIEW]

Pistes:

Identifiant RWYQFULongueur (ft)Largeur (ft)SurfaceLDA (ft)
09L90°12799164ASP
27R270°12799164ASP
09R90°12001164ASP
27L270°12001164ASP

Coordonnées de l'aéroport

Adresse: London United Kingdom

Handlers

Signature Flight Support

Signature Flight Support

Menzies Aviation

Menzies Aviation
[VIEW][VIEW]
+447711898398

Vue satellite de EGLL